Time;durP1;ratioP1;P1;durP2;ratioP2;P2;SDS_P1;SDS_P2;PMS_P1;PMS_P2;Temp;Humidity;BMP_temperature;BMP_pressure;BME280_temperature;BME280_humidity;BME280_pressure;Samples;Min_cycle;Max_cycle;Signal;HPM_P1;HPM_P2
2022/05/01 00:02:08;;;;;;;13.18;9.55;;;;;;;10.05;67.84;102457.19;5043283;28;20025;-69
2022/05/01 00:04:33;;;;;;;12.90;9.90;;;;;;;10.03;67.80;102459.97;5047885;28;20028;-70
2022/05/01 00:06:59;;;;;;;13.20;9.75;;;;;;;10.00;68.17;102454.91;5044813;28;20032;-70
2022/05/01 00:09:24;;;;;;;13.60;9.98;;;;;;;10.03;68.10;102453.81;5045144;28;20040;-70
2022/05/01 00:11:49;;;;;;;12.90;9.80;;;;;;;10.00;67.85;102457.56;5043584;28;20036;-70
2022/05/01 00:14:15;;;;;;;14.13;10.52;;;;;;;9.99;68.09;102450.56;5046166;28;20036;-71
2022/05/01 00:16:40;;;;;;;14.10;9.70;;;;;;;10.00;68.03;102449.59;5046663;28;20474;-70
2022/05/01 00:19:08;;;;;;;14.38;10.48;;;;;;;9.97;68.32;102455.16;5041694;28;21795;-69
2022/05/01 00:21:34;;;;;;;15.52;10.63;;;;;;;9.95;68.21;102451.81;5045618;28;20039;-69
2022/05/01 00:24:00;;;;;;;13.13;10.20;;;;;;;9.90;68.25;102457.50;5043485;28;20466;-70
2022/05/01 00:26:27;;;;;;;14.43;10.05;;;;;;;9.87;68.69;102449.78;5041626;28;20036;-72
2022/05/01 00:28:52;;;;;;;12.85;10.65;;;;;;;9.88;68.44;102453.28;5043979;28;20045;-70
2022/05/01 00:31:17;;;;;;;12.95;10.57;;;;;;;9.81;68.92;102455.56;5042363;28;20389;-70
2022/05/01 00:36:26;;;;;;;12.20;10.63;;;;;;;9.74;69.03;102462.34;5040912;28;20052;-70
2022/05/01 00:39:03;;;;;;;15.52;11.25;;;;;;;9.74;69.16;102453.56;5044858;28;20071;-70
2022/05/01 00:41:33;;;;;;;16.20;10.98;;;;;;;9.74;68.97;102450.91;5047390;28;20398;-69
2022/05/01 00:44:03;;;;;;;13.38;10.95;;;;;;;9.74;69.08;102451.75;5042643;28;20029;-69
2022/05/01 00:46:29;;;;;;;17.05;11.30;;;;;;;9.77;68.75;102448.00;5044146;28;20053;-69
2022/05/01 00:48:54;;;;;;;16.23;11.35;;;;;;;9.77;69.08;102432.06;5043895;28;20025;-69
2022/05/01 00:51:20;;;;;;;14.20;10.93;;;;;;;9.79;68.90;102443.41;5044470;28;20043;-70
2022/05/01 00:53:49;;;;;;;17.27;11.00;;;;;;;9.75;69.24;102434.84;5044979;28;20016;-70
2022/05/01 00:56:16;;;;;;;15.63;11.23;;;;;;;9.78;68.82;102433.75;5043679;28;20029;-69
2022/05/01 00:58:42;;;;;;;18.30;12.13;;;;;;;9.76;69.10;102430.41;5043849;28;20027;-69
2022/05/01 01:01:08;;;;;;;15.52;11.52;;;;;;;9.79;69.30;102432.78;5040515;28;20035;-70
2022/05/01 01:03:34;;;;;;;16.45;11.80;;;;;;;9.74;69.17;102438.47;5043377;28;20037;-70
2022/05/01 01:05:59;;;;;;;16.02;11.65;;;;;;;9.69;69.21;102437.19;5043452;28;20167;-70
2022/05/01 01:08:25;;;;;;;13.85;11.90;;;;;;;9.62;69.78;102428.88;5043213;28;20037;-69
2022/05/01 01:10:50;;;;;;;19.80;12.43;;;;;;;9.57;69.68;102436.38;5041184;28;20021;-69
2022/05/01 01:13:15;;;;;;;13.93;11.15;;;;;;;9.46;69.60;102436.41;5045210;28;20029;-70
2022/05/01 01:15:41;;;;;;;15.55;11.82;;;;;;;9.31;69.88;102430.53;5046718;28;20538;-69
2022/05/01 01:18:06;;;;;;;15.00;11.50;;;;;;;9.22;70.10;102431.25;5047226;28;20032;-69
2022/05/01 01:20:31;;;;;;;17.27;11.23;;;;;;;9.24;70.67;102431.97;5044191;28;20037;-70
2022/05/01 01:22:59;;;;;;;15.05;11.40;;;;;;;9.25;70.60;102425.69;5045163;28;20025;-69
2022/05/01 01:25:29;;;;;;;16.95;11.55;;;;;;;9.28;70.65;102436.09;5041601;28;20041;-69
2022/05/01 01:27:57;;;;;;;18.42;12.30;;;;;;;9.32;70.69;102418.97;5045149;28;20536;-69
2022/05/01 01:33:07;;;;;;;14.27;11.55;;;;;;;9.35;70.79;102425.81;5044936;28;20075;-69
2022/05/01 01:35:35;;;;;;;16.05;12.50;;;;;;;9.32;70.91;102430.41;5045460;28;20064;-69
2022/05/01 01:38:01;;;;;;;16.07;12.33;;;;;;;9.34;70.74;102432.09;5043636;28;20033;-72
2022/05/01 01:40:35;;;;;;;15.40;11.60;;;;;;;9.33;71.09;102428.59;5043484;28;20044;-69
2022/05/01 01:43:02;;;;;;;15.40;11.50;;;;;;;9.37;70.67;102430.03;5044855;28;20099;-69
2022/05/01 01:45:28;;;;;;;16.17;11.90;;;;;;;9.31;70.71;102426.06;5043464;28;20681;-69
2022/05/01 01:47:55;;;;;;;14.32;11.85;;;;;;;9.26;70.79;102419.47;5043261;28;20784;-70
2022/05/01 01:50:21;;;;;;;17.15;11.82;;;;;;;9.28;70.91;102421.03;5043713;28;20033;-71
2022/05/01 01:52:47;;;;;;;16.83;11.98;;;;;;;9.29;70.78;102427.16;5046604;28;20042;-70
2022/05/01 01:55:19;;;;;;;15.05;11.70;;;;;;;9.20;70.83;102419.94;5043371;28;20425;-69
2022/05/01 01:57:48;;;;;;;17.42;11.88;;;;;;;9.15;70.92;102425.59;5044052;28;20033;-70
2022/05/01 02:00:14;;;;;;;16.73;11.95;;;;;;;9.03;71.02;102418.63;5044922;28;20032;-69
2022/05/01 02:02:40;;;;;;;17.77;12.57;;;;;;;8.95;70.93;102427.16;5043511;28;20029;-70
2022/05/01 02:05:06;;;;;;;15.82;12.65;;;;;;;8.89;71.45;102424.16;5042866;28;20103;-69
2022/05/01 02:07:33;;;;;;;16.50;12.20;;;;;;;8.72;71.48;102414.06;5045299;28;20074;-70
2022/05/01 02:09:59;;;;;;;16.25;12.93;;;;;;;8.61;71.78;102418.38;5041662;28;20049;-70
2022/05/01 02:12:24;;;;;;;17.58;11.88;;;;;;;8.63;71.92;102420.91;5042946;28;20068;-70
2022/05/01 02:14:49;;;;;;;16.45;12.60;;;;;;;8.58;72.04;102420.44;5044159;28;20028;-69
2022/05/01 02:17:15;;;;;;;18.70;13.10;;;;;;;8.50;72.42;102413.09;5044126;28;20025;-69
2022/05/01 02:19:41;;;;;;;16.85;13.27;;;;;;;8.51;72.51;102413.94;5043710;28;20025;-70
2022/05/01 02:22:06;;;;;;;18.88;13.57;;;;;;;8.48;72.44;102414.16;5042238;28;21408;-70
2022/05/01 02:24:31;;;;;;;17.92;13.10;;;;;;;8.46;73.01;102422.22;5043795;28;20461;-70
2022/05/01 02:26:57;;;;;;;16.27;13.20;;;;;;;8.44;72.98;102410.06;5039084;28;20087;-70
2022/05/01 02:29:22;;;;;;;17.48;13.75;;;;;;;8.44;73.07;102410.91;5046072;28;20043;-69
2022/05/01 02:31:53;;;;;;;17.42;13.60;;;;;;;8.42;73.29;102407.53;5046958;28;20029;-70
2022/05/01 02:34:22;;;;;;;17.65;13.93;;;;;;;8.44;73.02;102404.78;5041003;28;20039;-70
2022/05/01 02:36:48;;;;;;;18.58;13.60;;;;;;;8.42;73.17;102406.69;5042885;28;20029;-70
2022/05/01 02:39:13;;;;;;;20.48;13.00;;;;;;;8.39;73.28;102407.78;5043672;28;20031;-70
2022/05/01 02:41:39;;;;;;;16.75;12.82;;;;;;;8.30;73.64;102395.19;5046622;28;20116;-69
2022/05/01 02:44:04;;;;;;;16.88;12.88;;;;;;;8.27;73.61;102395.44;5044643;28;20024;-70
2022/05/01 02:46:29;;;;;;;18.10;12.75;;;;;;;8.12;73.75;102392.19;5047403;28;20199;-70
2022/05/01 02:48:55;;;;;;;16.52;12.70;;;;;;;8.10;74.19;102393.25;5046586;28;20037;-69
2022/05/01 02:51:20;;;;;;;17.02;12.98;;;;;;;8.03;74.35;102393.69;5045690;28;20667;-69
2022/05/01 02:53:46;;;;;;;17.83;12.85;;;;;;;8.09;74.14;102397.66;5047899;28;20029;-70
2022/05/01 02:56:11;;;;;;;19.02;13.45;;;;;;;8.12;74.02;102388.69;5046289;28;20997;-70
2022/05/01 02:58:36;;;;;;;21.08;13.50;;;;;;;8.15;74.09;102381.34;5049038;28;20083;-69
2022/05/01 03:01:02;;;;;;;20.27;13.93;;;;;;;8.15;74.15;102385.81;5047847;28;20405;-70
2022/05/01 03:03:28;;;;;;;17.35;14.25;;;;;;;8.20;74.41;102388.94;5042903;28;20033;-69
2022/05/01 03:05:54;;;;;;;19.20;14.80;;;;;;;8.21;74.21;102393.28;5047178;28;20025;-70
2022/05/01 03:08:21;;;;;;;18.42;14.50;;;;;;;8.18;74.10;102375.81;5047692;28;20029;-70
2022/05/01 03:10:47;;;;;;;17.50;14.00;;;;;;;8.14;73.88;102389.41;5045394;28;20035;-70
2022/05/01 03:13:13;;;;;;;16.17;13.05;;;;;;;8.03;73.79;102391.03;5045880;28;20029;-70
2022/05/01 03:15:39;;;;;;;17.98;13.85;;;;;;;7.86;73.73;102390.66;5047562;28;20086;-70
2022/05/01 03:23:32;;;;;;;17.05;12.98;;;;;;;7.51;74.09;102382.66;5044456;28;20043;-70
2022/05/01 03:25:58;;;;;;;20.98;13.15;;;;;;;7.37;74.21;102375.75;5045235;28;20104;-70
2022/05/01 03:28:23;;;;;;;18.00;14.10;;;;;;;7.25;74.58;102379.31;5047133;28;20398;-69
2022/05/01 03:30:49;;;;;;;19.45;15.02;;;;;;;7.20;75.15;102376.13;5046644;28;20029;-72
2022/05/01 03:33:15;;;;;;;22.05;15.88;;;;;;;7.15;75.35;102384.38;5042807;28;20595;-69
2022/05/01 03:35:41;;;;;;;23.52;15.90;;;;;;;7.15;75.58;102373.81;5048697;28;20035;-69
2022/05/01 03:38:06;;;;;;;21.60;15.77;;;;;;;7.15;75.67;102368.53;5044264;28;20029;-70
2022/05/01 03:40:35;;;;;;;21.55;15.63;;;;;;;7.15;75.78;102374.66;5045318;28;20029;-69
2022/05/01 03:43:04;;;;;;;21.20;14.95;;;;;;;7.01;76.18;102380.09;5045616;28;20115;-71
2022/05/01 03:45:30;;;;;;;19.67;14.23;;;;;;;6.88;75.96;102373.16;5046690;28;20024;-69
2022/05/01 03:47:55;;;;;;;20.83;14.73;;;;;;;6.79;76.09;102374.66;5047027;28;20039;-69
2022/05/01 03:50:20;;;;;;;18.83;14.20;;;;;;;6.66;76.20;102365.91;5041256;28;20044;-70
2022/05/01 03:52:46;;;;;;;18.20;13.77;;;;;;;6.62;76.29;102364.41;5047236;28;20028;-69
2022/05/01 03:55:12;;;;;;;22.20;15.13;;;;;;;6.61;76.52;102378.56;5044074;28;20052;-69
2022/05/01 03:57:38;;;;;;;19.95;14.98;;;;;;;6.58;76.45;102376.16;5048584;28;20122;-69
2022/05/01 04:00:05;;;;;;;22.27;15.67;;;;;;;6.50;76.80;102372.25;5043065;28;20083;-70
2022/05/01 04:02:30;;;;;;;21.07;15.77;;;;;;;6.49;76.81;102373.22;5045002;28;20025;-70
2022/05/01 04:04:57;;;;;;;26.20;17.30;;;;;;;6.50;76.98;102372.25;5041528;28;20061;-69
2022/05/01 04:07:23;;;;;;;23.53;17.57;;;;;;;6.49;77.05;102369.72;5045430;28;20029;-69
2022/05/01 04:09:48;;;;;;;23.00;17.00;;;;;;;6.51;77.19;102373.09;5046898;28;20139;-70
2022/05/01 04:12:14;;;;;;;22.93;17.03;;;;;;;6.49;77.19;102370.56;5044914;28;20036;-69
2022/05/01 04:14:39;;;;;;;22.37;17.37;;;;;;;6.47;77.08;102369.84;5046834;28;20024;-71
2022/05/01 04:17:05;;;;;;;25.20;16.67;;;;;;;6.43;77.04;102375.44;5047628;28;20541;-69
2022/05/01 04:19:30;;;;;;;21.63;16.77;;;;;;;6.38;77.14;102373.13;5044540;28;20028;-69
2022/05/01 04:21:56;;;;;;;17.40;13.43;;;;;;;6.35;77.21;102372.47;5045515;28;20391;-69
2022/05/01 04:24:21;;;;;;;19.17;14.90;;;;;;;6.29;77.11;102373.72;5042516;28;20045;-69
2022/05/01 04:26:47;;;;;;;19.47;14.70;;;;;;;6.30;77.43;102372.78;5046590;28;20029;-71
2022/05/01 04:31:56;;;;;;;19.97;14.40;;;;;;;6.25;77.52;102371.41;5048157;28;20097;-69
2022/05/01 04:34:21;;;;;;;17.27;12.33;;;;;;;6.13;77.22;102362.56;5043656;28;20048;-69
2022/05/01 04:36:46;;;;;;;10.30;7.97;;;;;;;6.16;77.55;102375.53;5043604;28;20052;-69
2022/05/01 04:39:11;;;;;;;8.93;8.03;;;;;;;6.06;77.37;102371.81;5043945;28;20130;-69
2022/05/01 04:41:37;;;;;;;10.87;8.20;;;;;;;6.10;77.46;102375.94;5044750;28;20037;-69
2022/05/01 04:44:03;;;;;;;15.23;11.33;;;;;;;6.04;77.71;102374.53;5043056;28;20032;-69
2022/05/01 04:46:28;;;;;;;8.20;6.83;;;;;;;6.01;77.49;102369.47;5045387;28;20081;-69
2022/05/01 04:48:54;;;;;;;8.60;7.00;;;;;;;6.00;77.67;102369.59;5046912;28;20029;-70
2022/05/01 04:51:20;;;;;;;7.67;6.50;;;;;;;5.96;77.49;102374.22;5046179;28;20132;-69
2022/05/01 04:53:45;;;;;;;7.47;6.67;;;;;;;5.96;77.51;102374.22;5047241;28;20043;-69
2022/05/01 04:58:54;;;;;;;11.00;9.80;;;;;;;5.93;77.81;102384.97;5043313;28;20044;-69
2022/05/01 05:01:19;;;;;;;13.60;10.10;;;;;;;5.89;78.09;102379.06;5043803;28;20029;-69
2022/05/01 05:03:45;;;;;;;13.70;11.37;;;;;;;5.87;78.08;102378.31;5044543;28;20029;-69
2022/05/01 05:06:10;;;;;;;12.33;10.67;;;;;;;5.86;78.23;102388.94;5043752;28;20567;-69
2022/05/01 05:11:20;;;;;;;20.20;15.40;;;;;;;5.92;78.69;102387.72;5042597;28;20044;-69
2022/05/01 05:13:45;;;;;;;22.30;16.60;;;;;;;5.98;78.89;102395.22;5043006;28;20041;-69
2022/05/01 05:16:13;;;;;;;26.13;17.67;;;;;;;6.00;79.06;102388.88;5046089;28;20093;-70
2022/05/01 05:18:40;;;;;;;21.63;16.10;;;;;;;6.01;79.17;102387.09;5044383;28;20028;-69
2022/05/01 05:21:05;;;;;;;19.77;15.70;;;;;;;5.97;79.15;102382.97;5041258;28;20056;-70
2022/05/01 05:23:31;;;;;;;21.70;16.07;;;;;;;6.03;79.38;102393.09;5045568;28;20505;-69
2022/05/01 05:25:56;;;;;;;19.60;15.53;;;;;;;6.04;79.87;102389.53;5045624;28;20085;-70
2022/05/01 05:28:21;;;;;;;17.87;14.10;;;;;;;6.02;79.57;102397.53;5042616;28;20044;-69
2022/05/01 05:30:48;;;;;;;16.37;13.50;;;;;;;6.01;79.38;102402.91;5043568;28;20053;-69
2022/05/01 05:33:17;;;;;;;14.83;12.63;;;;;;;5.98;79.64;102403.97;5044834;28;20063;-69
2022/05/01 05:35:43;;;;;;;15.63;12.48;;;;;;;5.90;79.66;102412.41;5045221;28;20457;-69
2022/05/01 05:38:08;;;;;;;14.20;11.50;;;;;;;5.82;79.96;102413.81;5044266;28;20148;-69
2022/05/01 05:40:33;;;;;;;15.17;12.27;;;;;;;5.81;79.87;102415.63;5045034;28;20078;-69
2022/05/01 05:42:59;;;;;;;15.67;13.00;;;;;;;5.81;80.05;102415.63;5041316;28;20033;-70
2022/05/01 05:45:24;;;;;;;20.07;14.90;;;;;;;5.83;80.19;102415.53;5040841;28;20029;-70
2022/05/01 05:47:50;;;;;;;23.37;17.40;;;;;;;5.90;80.50;102416.81;5046952;28;20024;-70
2022/05/01 05:50:15;;;;;;;26.50;18.53;;;;;;;5.98;80.58;102418.94;5043876;28;20032;-69
2022/05/01 05:52:40;;;;;;;29.57;21.23;;;;;;;6.06;81.10;102414.00;5043706;28;20048;-69
2022/05/01 05:55:06;;;;;;;31.87;23.07;;;;;;;6.20;81.20;102416.56;5041850;28;20119;-70
2022/05/01 05:57:32;;;;;;;32.80;23.90;;;;;;;6.33;81.47;102414.78;5047069;28;20464;-69
2022/05/01 05:59:57;;;;;;;35.30;23.33;;;;;;;6.44;81.75;102416.72;5046710;28;20493;-69
2022/05/01 06:02:22;;;;;;;36.70;25.17;;;;;;;6.60;82.18;102421.75;5045734;28;20056;-69
2022/05/01 06:04:47;;;;;;;35.40;24.93;;;;;;;6.75;82.63;102420.72;5045297;28;20107;-69
2022/05/01 06:07:13;;;;;;;34.73;25.17;;;;;;;6.84;82.46;102428.81;5047219;28;20112;-69
2022/05/01 06:09:38;;;;;;;39.23;26.07;;;;;;;6.95;82.30;102429.88;5045585;28;20095;-69
2022/05/01 06:12:04;;;;;;;39.30;26.87;;;;;;;7.10;82.43;102434.06;5046139;28;20061;-69
2022/05/01 06:14:29;;;;;;;40.53;27.97;;;;;;;7.21;82.53;102420.09;5044023;28;20067;-70
2022/05/01 06:16:54;;;;;;;40.93;26.47;;;;;;;7.37;82.56;102423.31;5049111;28;20112;-69
2022/05/01 06:19:20;;;;;;;39.37;26.17;;;;;;;7.57;82.79;102432.47;5050532;28;20059;-69
2022/05/01 06:21:45;;;;;;;40.00;26.90;;;;;;;7.73;82.65;102431.22;5049295;28;20056;-70
2022/05/01 06:24:10;;;;;;;38.13;25.98;;;;;;;7.86;82.59;102428.53;5053480;28;20112;-69
2022/05/01 06:26:35;;;;;;;39.65;26.48;;;;;;;8.00;82.35;102438.06;5049821;28;20049;-69
2022/05/01 06:29:01;;;;;;;39.28;25.30;;;;;;;8.16;82.53;102435.97;5044608;28;20532;-69
2022/05/01 06:31:27;;;;;;;39.30;26.45;;;;;;;8.31;82.04;102433.94;5047388;28;20114;-69
2022/05/01 06:33:54;;;;;;;32.05;23.13;;;;;;;8.41;81.88;102434.13;5047301;28;20111;-70
2022/05/01 06:36:19;;;;;;;34.92;22.92;;;;;;;8.51;81.37;102425.34;5059652;28;20537;-69
2022/05/01 06:38:45;;;;;;;34.33;23.23;;;;;;;8.69;81.38;102431.06;5050148;28;20159;-69
2022/05/01 06:41:11;;;;;;;29.63;22.35;;;;;;;8.76;80.87;102426.94;5053125;28;20429;-69
2022/05/01 06:43:36;;;;;;;37.47;22.27;;;;;;;8.91;80.56;102433.69;5052531;28;20028;-69
2022/05/01 06:46:02;;;;;;;32.38;22.88;;;;;;;9.04;80.04;102432.72;5049945;28;20486;-70
2022/05/01 06:48:27;;;;;;;32.03;22.42;;;;;;;9.13;79.94;102437.28;5050463;28;20190;-69
2022/05/01 06:50:53;;;;;;;28.58;21.67;;;;;;;9.24;79.42;102430.16;5052484;28;20039;-69
2022/05/01 06:53:18;;;;;;;28.20;21.67;;;;;;;9.37;79.21;102435.34;5050129;28;20805;-70
2022/05/01 06:55:44;;;;;;;29.35;21.75;;;;;;;9.43;78.87;102441.94;5054078;28;20085;-69
2022/05/01 06:58:09;;;;;;;29.52;22.10;;;;;;;9.41;78.81;102420.03;5047031;28;20025;-66
2022/05/01 07:00:34;;;;;;;36.75;21.52;;;;;;;9.58;78.31;102430.13;5046649;28;20068;-69
2022/05/01 07:03:00;;;;;;;30.73;21.15;;;;;;;9.64;77.84;102424.31;5049562;28;20040;-70
2022/05/01 07:05:26;;;;;;;31.00;20.33;;;;;;;9.76;77.53;102431.25;5045280;28;20037;-69
2022/05/01 07:07:51;;;;;;;29.35;21.35;;;;;;;9.83;77.29;102436.88;5048861;28;20061;-69
2022/05/01 07:10:18;;;;;;;30.00;21.05;;;;;;;9.90;76.84;102432.78;5046592;28;20060;-70
2022/05/01 07:12:43;;;;;;;29.08;21.10;;;;;;;9.91;76.54;102427.34;5046618;28;20112;-69
2022/05/01 07:15:09;;;;;;;29.02;21.23;;;;;;;9.97;76.47;102431.28;5048308;28;20450;-70
2022/05/01 07:17:34;;;;;;;29.27;21.60;;;;;;;10.00;76.64;102435.50;5049353;28;20028;-69
2022/05/01 07:20:00;;;;;;;25.00;20.27;;;;;;;10.00;76.28;102430.19;5048289;28;20033;-71
2022/05/01 07:22:26;;;;;;;28.58;20.27;;;;;;;10.05;76.15;102428.81;5050510;28;20124;-70
2022/05/01 07:24:51;;;;;;;30.02;20.42;;;;;;;10.04;76.00;102432.44;5046061;28;20029;-69
2022/05/01 07:27:17;;;;;;;29.60;20.50;;;;;;;10.11;75.46;102430.97;5048080;28;20033;-69
2022/05/01 07:29:42;;;;;;;26.75;20.05;;;;;;;10.19;75.50;102430.34;5046828;28;20688;-69
2022/05/01 07:32:09;;;;;;;29.55;20.20;;;;;;;10.22;75.04;102428.28;5045773;28;20032;-71
2022/05/01 07:34:34;;;;;;;28.90;20.42;;;;;;;10.24;75.05;102431.66;5046076;28;20052;-69
2022/05/01 07:36:59;;;;;;;25.33;18.77;;;;;;;10.31;74.91;102431.13;5051915;28;20498;-69
2022/05/01 07:39:25;;;;;;;26.08;18.80;;;;;;;10.34;74.24;102425.56;5041440;28;20131;-69
2022/05/01 07:41:50;;;;;;;25.70;19.85;;;;;;;10.37;74.26;102428.78;5043471;28;20028;-68
2022/05/01 07:44:15;;;;;;;28.27;19.15;;;;;;;10.38;74.13;102441.09;5044335;28;20032;-69
2022/05/01 07:46:41;;;;;;;25.67;19.30;;;;;;;10.41;73.45;102438.22;5044810;28;20121;-68
2022/05/01 07:49:07;;;;;;;28.63;19.02;;;;;;;10.44;73.59;102429.13;5048419;28;20033;-69
2022/05/01 07:51:33;;;;;;;30.85;19.42;;;;;;;10.50;73.47;102439.25;5045416;28;20029;-70
2022/05/01 07:53:59;;;;;;;26.08;19.48;;;;;;;10.54;73.64;102432.69;5045143;28;20040;-69
2022/05/01 07:56:25;;;;;;;23.40;18.52;;;;;;;10.63;73.23;102433.69;5047805;28;20033;-68
2022/05/01 07:58:51;;;;;;;26.75;18.75;;;;;;;10.78;73.33;102441.22;5045910;28;20093;-68
2022/05/01 08:01:17;;;;;;;26.25;18.35;;;;;;;10.91;73.32;102429.50;5046921;28;20032;-69
2022/05/01 08:06:35;;;;;;;25.48;17.52;;;;;;;11.27;72.73;102433.41;5031188;28;20136;-69
2022/05/01 08:09:00;;;;;;;22.83;17.17;;;;;;;11.48;72.33;102429.66;5045001;28;20108;-68
2022/05/01 08:11:26;;;;;;;22.38;17.05;;;;;;;11.62;72.25;102435.59;5047630;28;20593;-68
2022/05/01 08:13:51;;;;;;;23.08;16.15;;;;;;;11.69;71.21;102431.38;5041106;28;20059;-68
2022/05/01 08:16:17;;;;;;;26.20;16.13;;;;;;;11.77;70.40;102426.19;5045512;28;20028;-68
2022/05/01 08:21:28;;;;;;;20.95;15.30;;;;;;;11.94;69.51;102432.69;5045644;28;20532;-68
2022/05/01 08:23:53;;;;;;;18.98;14.07;;;;;;;11.98;68.53;102432.25;5039462;28;20033;-69
2022/05/01 08:26:18;;;;;;;19.08;13.43;;;;;;;11.96;67.66;102428.06;5044751;28;20524;-68
2022/05/01 08:28:45;;;;;;;20.00;14.65;;;;;;;12.06;67.51;102428.88;5045860;28;20122;-69
2022/05/01 08:31:11;;;;;;;17.80;13.20;;;;;;;12.12;67.24;102428.31;5040122;28;22394;-68
2022/05/01 08:33:37;;;;;;;22.25;12.77;;;;;;;12.24;66.01;102424.53;5040298;28;20040;-68
2022/05/01 08:36:05;;;;;;;15.23;12.98;;;;;;;12.34;65.59;102429.84;5045135;28;20536;-68
2022/05/01 08:38:31;;;;;;;18.92;13.98;;;;;;;12.39;65.07;102422.25;5048679;28;20112;-67
2022/05/01 08:40:56;;;;;;;18.67;13.30;;;;;;;12.41;64.44;102418.47;5043005;28;20115;-68
2022/05/01 08:43:23;;;;;;;19.38;12.30;;;;;;;12.59;64.86;102421.22;5043685;28;20579;-68
2022/05/01 08:46:17;;;;;;;16.52;11.55;;;;;;;12.75;64.49;102423.28;5043777;28;20033;-68
2022/05/01 08:48:51;;;;;;;12.20;8.30;;;;;;;12.83;63.51;102412.72;5042415;28;20037;-68
2022/05/01 08:51:20;;;;;;;10.07;8.18;;;;;;;12.97;62.46;102420.22;5042566;28;20520;-68
2022/05/01 08:53:47;;;;;;;9.93;6.68;;;;;;;13.11;60.27;102426.06;5045711;28;20510;-68
2022/05/01 08:56:12;;;;;;;12.48;8.77;;;;;;;13.11;59.22;102416.25;5051399;28;20024;-69
2022/05/01 08:58:41;;;;;;;13.85;8.70;;;;;;;13.20;58.35;102423.38;5046546;28;20078;-68
2022/05/01 09:01:11;;;;;;;7.78;5.50;;;;;;;13.26;56.93;102417.44;5040716;28;20501;-68
2022/05/01 09:03:39;;;;;;;12.75;8.38;;;;;;;13.37;57.02;102410.22;5042024;28;20035;-68
2022/05/01 09:06:04;;;;;;;12.13;8.82;;;;;;;13.51;57.19;102412.38;5041714;28;20021;-67
2022/05/01 09:08:29;;;;;;;12.13;9.38;;;;;;;13.50;57.26;102410.69;5044406;28;20029;-68
2022/05/01 09:10:55;;;;;;;10.63;8.65;;;;;;;13.50;56.55;102416.03;5046656;28;20057;-68
2022/05/01 09:13:24;;;;;;;10.90;5.82;;;;;;;13.54;55.61;102412.06;5046862;28;20630;-68
2022/05/01 09:15:50;;;;;;;;;;;;;;;13.65;54.72;102414.53;5039453;28;20035;-68
2022/05/01 09:18:15;;;;;;;8.73;7.13;;;;;;;13.40;53.71;102410.78;5045437;28;19912;-68
2022/05/01 09:21:02;;;;;;;9.85;7.13;;;;;;;13.48;54.27;102407.34;5044898;28;20103;-68
2022/05/01 09:23:44;;;;;;;11.32;7.20;;;;;;;13.61;54.11;102419.34;5041641;28;20028;-68
2022/05/01 09:26:12;;;;;;;12.02;7.20;;;;;;;13.63;53.75;102413.84;5044761;28;20664;-69
2022/05/01 09:28:47;;;;;;;10.55;6.93;;;;;;;13.67;53.52;102412.53;5041519;28;20486;-69
2022/05/01 09:31:12;;;;;;;10.43;7.07;;;;;;;13.67;52.96;102415.22;5041140;28;20425;-68
2022/05/01 09:33:38;;;;;;;10.98;6.72;;;;;;;13.66;52.67;102418.88;5045933;28;20031;-68
2022/05/01 09:36:03;;;;;;;9.75;6.40;;;;;;;13.58;50.96;102414.28;5041297;28;20039;-68
2022/05/01 09:38:28;;;;;;;10.32;6.18;;;;;;;13.61;51.66;102419.34;5046465;28;20056;-69
2022/05/01 09:40:58;;;;;;;7.55;6.18;;;;;;;13.64;51.01;102410.19;5046760;28;20090;-69
2022/05/01 09:43:36;;;;;;;8.93;6.30;;;;;;;13.83;51.01;102417.19;5046064;28;20112;-68
2022/05/01 09:46:16;;;;;;;7.57;5.57;;;;;;;13.86;49.90;102420.38;5045385;28;20025;-68
2022/05/01 09:48:44;;;;;;;9.93;6.10;;;;;;;14.00;49.52;102402.16;5043218;28;20090;-68
2022/05/01 09:51:19;;;;;;;9.68;6.18;;;;;;;14.19;50.19;102404.66;5046353;28;20029;-69
2022/05/01 09:53:46;;;;;;;10.25;6.88;;;;;;;14.34;49.93;102400.38;5041516;28;20112;-69
2022/05/01 09:56:11;;;;;;;10.88;6.70;;;;;;;14.62;50.00;102400.25;5042624;28;20393;-70
2022/05/01 09:58:40;;;;;;;9.38;5.80;;;;;;;14.65;49.41;102403.44;5045518;28;20584;-69
2022/05/01 10:01:16;;;;;;;9.30;6.40;;;;;;;14.75;48.30;102404.19;5053196;28;20025;-69
2022/05/01 10:03:45;;;;;;;8.65;6.22;;;;;;;14.83;48.30;102406.06;5044440;28;20024;-69
2022/05/01 10:06:11;;;;;;;7.70;5.63;;;;;;;14.91;48.01;102400.72;5043546;28;20119;-69
2022/05/01 10:08:39;;;;;;;10.30;6.07;;;;;;;14.98;47.18;102399.09;5044379;28;20288;-68
2022/05/01 10:11:05;;;;;;;7.78;5.93;;;;;;;14.96;46.66;102395.72;5046445;28;20062;-68
2022/05/01 10:13:31;;;;;;;7.28;6.00;;;;;;;15.06;47.14;102396.47;5045857;28;20024;-69
2022/05/01 10:15:57;;;;;;;7.55;5.97;;;;;;;15.10;46.50;102402.31;5042697;28;21398;-68
2022/05/01 10:18:24;;;;;;;9.77;5.55;;;;;;;15.16;46.84;102399.00;5046361;28;20738;-68
2022/05/01 10:20:49;;;;;;;8.98;6.55;;;;;;;15.15;46.05;102392.81;5045785;28;20033;-69
2022/05/01 10:23:16;;;;;;;9.55;6.20;;;;;;;15.27;46.04;102393.31;5042556;28;20028;-69
2022/05/01 10:25:50;;;;;;;9.23;6.32;;;;;;;15.37;46.61;102390.53;5038694;28;20442;-69
2022/05/01 10:28:33;;;;;;;10.63;6.80;;;;;;;15.52;46.11;102390.69;5043158;28;20029;-69
2022/05/01 10:34:28;;;;;;;9.27;6.22;;;;;;;15.57;45.55;102378.50;5042739;28;20485;-68
2022/05/01 10:37:24;;;;;;;7.30;6.10;;;;;;;15.43;45.38;102388.03;5039400;28;20569;-69
2022/05/01 10:39:50;;;;;;;8.23;6.45;;;;;;;15.55;45.43;102380.50;5045839;28;20076;-68
2022/05/01 10:42:38;;;;;;;11.05;6.75;;;;;;;15.47;44.67;102373.31;5046582;28;20414;-69
2022/05/01 10:45:23;;;;;;;7.75;6.55;;;;;;;15.41;44.54;102373.13;5045560;28;20036;-69
2022/05/01 10:47:53;;;;;;;8.82;6.53;;;;;;;15.31;44.81;102367.91;5051974;28;20090;-69
2022/05/01 10:50:26;;;;;;;8.90;6.90;;;;;;;15.23;44.31;102377.75;5045438;28;20110;-68
2022/05/01 10:53:16;;;;;;;10.25;6.32;;;;;;;15.27;44.78;102371.91;5040136;28;20059;-69
2022/05/01 10:55:48;;;;;;;10.65;6.50;;;;;;;15.22;44.46;102368.06;5046495;28;20036;-68
2022/05/01 10:58:27;;;;;;;11.77;6.82;;;;;;;15.27;44.35;102366.56;5038990;28;20396;-68
2022/05/01 11:00:55;;;;;;;21.65;7.20;;;;;;;15.10;44.46;102357.69;5044927;28;20025;-68
2022/05/01 11:03:32;;;;;;;10.75;6.80;;;;;;;15.03;44.15;102351.28;5048336;28;20036;-69
2022/05/01 11:06:04;;;;;;;11.40;6.22;;;;;;;15.07;44.60;102362.50;5044041;28;20033;-69
2022/05/01 11:08:32;;;;;;;7.75;6.40;;;;;;;15.17;44.47;102356.00;5049349;28;20129;-69
2022/05/01 11:11:00;;;;;;;9.55;6.72;;;;;;;15.32;44.35;102356.19;5050254;28;20025;-68
2022/05/01 11:13:33;;;;;;;8.55;6.60;;;;;;;15.44;44.31;102346.88;5049536;28;20310;-68
2022/05/01 11:16:00;;;;;;;9.10;6.35;;;;;;;15.62;44.13;102352.09;5048882;28;20559;-68
2022/05/01 11:18:52;;;;;;;7.43;6.63;;;;;;;15.78;43.83;102348.56;5040922;28;20479;-68
2022/05/01 11:21:20;;;;;;;8.70;6.47;;;;;;;15.75;42.94;102355.09;5045849;28;20029;-68
2022/05/01 11:24:06;;;;;;;8.95;6.70;;;;;;;15.72;42.64;102355.44;5046825;28;20025;-69
2022/05/01 11:26:32;;;;;;;9.82;7.10;;;;;;;15.31;42.10;102345.66;5046267;28;20037;-68
2022/05/01 11:29:13;;;;;;;11.48;6.38;;;;;;;15.32;42.36;102341.97;5043948;28;20127;-69
2022/05/01 11:31:39;;;;;;;11.48;6.68;;;;;;;15.25;42.33;102343.63;5058860;28;20017;-68
2022/05/01 11:34:16;;;;;;;11.27;6.35;;;;;;;15.27;42.55;102333.59;5047609;28;20032;-68
2022/05/01 11:37:03;;;;;;;8.70;6.53;;;;;;;15.20;42.73;102330.75;5049198;28;20060;-69
2022/05/01 11:39:47;;;;;;;10.88;6.60;;;;;;;15.14;42.82;102324.22;5049122;28;20367;-70
2022/05/01 11:42:25;;;;;;;8.27;6.05;;;;;;;15.18;43.14;102322.91;5049292;28;20035;-68
2022/05/01 11:44:57;;;;;;;8.02;6.28;;;;;;;15.07;43.25;102322.38;5047435;28;20028;-69
2022/05/01 11:47:24;;;;;;;9.70;6.25;;;;;;;15.17;42.57;102321.22;5049305;28;20036;-68